Bei Facebook empfehlenBei Twitter postenGoogle plusPinterest

Das Wetter im Erzgebirge am 20.06.2015

Wetter und Klima am 20.06.2015 Holzhau im Erzgebirge (630m ü.NN)
Letzte gemessene Temperatur und Uhrzeit der Messung23:45:00 Uhr8.00 °C
Temperatur (Maximum / Höchstwert) und Uhrzeit der Messung11:45:00 Uhr11.90 °C
Temperatur (Minimum / Tiefstwert) und Uhrzeit der Messung05:00:006.90 °C
Errechneter Absolutwert der Temperaturschwankungen zwischen Tmin und Tmax des Tages5.00 K
Errechnete Tagesmitteltemperatur7.86923 °C
Gesamt - Niederschlag des Tages (in flüssiger Form)6.74 Liter / m²
Luftdruck (Maximum / Höchstwert) und Zeitpunkt der Messung23:45:00 Uhr1016.20 hPa
Luftdruck (Minimum / Tiefstwert) und Zeitpunkt der Messung06:30:00 Uhr1012.90 hPa
Errechneter Absolutwert der Luftdruckschwankungen des Tages3.30 hPa
Höchste gemessene Windgeschwindigkeit und Uhrzeit der Messung04:15:00 Uhr2.16 km/h
Errechnete Windhäufigkeit in Relation zu den Messwerten des Tages1.92308 %
Niedrigste Windkühle (Windchill) und Zeitpunkt der Messung05:00:00 Uhr6.90 °C
Taupunkt (Maximum / Höchstwert) und Uhrzeit der Messung11:45:00 Uhr9.10 °C
Taupunkt (Minimum / Tiefstwert) und Uhrzeit der Messung00:00:005.30 °C
Anzahl der automatisch eingelesenen Messwerte 52

Detaillierte Wetter- und Klima- Messwerte für den 20.06.2015 in Holzhau im Erzgebirge (630m ü.NN)
ZeitTemperaturLuftdruckRel. LuftfeuchteWindWindrichtungWindchillTaupunktNiederschlag l/m²
23:45:008.00 °C1016.20 hPa92.00 %6.80 °C6.74
23:30:007.90 °C1016.10 hPa92.00 %6.70 °C6.74
23:15:007.90 °C1016.10 hPa92.00 %6.70 °C6.74
23:00:007.90 °C1016.00 hPa92.00 %6.70 °C6.74
11:45:0011.90 °C1013.80 hPa83.00 %9.10 °C2.08
11:30:0010.60 °C1013.90 hPa85.00 %8.20 °C2.08
11:15:0010.00 °C1014.10 hPa84.00 %7.40 °C2.08
11:00:0010.90 °C1014.00 hPa86.00 %8.70 °C2.08
10:45:0010.40 °C1014.00 hPa87.00 %8.30 °C2.08
10:30:0010.10 °C1013.90 hPa89.00 %8.40 °C2.08
10:15:009.10 °C1014.00 hPa89.00 %7.40 °C2.08
10:00:009.80 °C1013.80 hPa91.00 %8.40 °C2.08
09:45:008.70 °C1013.80 hPa92.00 %7.50 °C2.08
09:30:008.20 °C1013.80 hPa92.00 %7.00 °C2.08
09:15:008.20 °C1013.70 hPa93.00 %7.10 °C2.08
09:00:007.80 °C1013.80 hPa93.00 %6.70 °C2.08
08:45:007.30 °C1013.70 hPa92.00 %6.10 °C2.08
08:30:007.20 °C1013.60 hPa92.00 %6.00 °C2.08
08:15:007.10 °C1013.50 hPa92.00 %5.90 °C2.08
08:00:007.30 °C1013.40 hPa92.00 %6.10 °C1.56
07:45:007.40 °C1013.40 hPa92.00 %6.20 °C1.56
07:30:007.20 °C1013.20 hPa92.00 %6.00 °C1.56
07:15:007.00 °C1013.10 hPa92.00 %5.80 °C1.56
07:00:007.10 °C1013.00 hPa92.00 %5.90 °C1.56
06:45:007.00 °C1013.00 hPa92.00 %5.80 °C1.56
06:30:007.10 °C1012.90 hPa92.00 %5.90 °C1.56
06:15:007.20 °C1012.90 hPa92.00 %6.00 °C1.04
06:00:007.10 °C1013.10 hPa92.00 %5.90 °C1.04
05:45:007.10 °C1013.20 hPa92.00 %5.90 °C1.04
05:30:007.00 °C1013.10 hPa92.00 %5.80 °C1.04
05:15:007.00 °C1013.10 hPa92.00 %5.80 °C1.04
05:00:006.90 °C1013.00 hPa92.00 %5.70 °C1.04
04:45:007.00 °C1013.10 hPa92.00 %5.80 °C1.04
04:30:007.00 °C1013.00 hPa92.00 %5.80 °C1.04
04:15:007.00 °C1013.30 hPa92.00 %2.16 km/hWNW7.00 °C5.80 °C1.04
04:00:007.10 °C1013.20 hPa92.00 %5.90 °C1.04
03:45:007.30 °C1013.00 hPa92.00 %6.10 °C1.04
03:30:007.30 °C1013.00 hPa92.00 %6.10 °C1.04
03:15:007.30 °C1013.10 hPa91.00 %5.90 °C1.04
03:00:007.30 °C1013.20 hPa91.00 %5.90 °C1.04
02:45:007.30 °C1013.20 hPa91.00 %5.90 °C0.52
02:30:007.40 °C1013.10 hPa91.00 %6.00 °C0.52
02:15:007.50 °C1013.50 hPa91.00 %6.10 °C0.52
02:00:007.60 °C1013.40 hPa90.00 %6.10 °C0.52
01:45:007.60 °C1013.40 hPa90.00 %6.10 °C0.52
01:30:007.80 °C1013.60 hPa90.00 %6.30 °C0.52
01:15:007.80 °C1013.60 hPa90.00 %6.30 °C0.52
01:00:007.80 °C1013.60 hPa89.00 %6.10 °C0.52
00:45:007.80 °C1013.70 hPa89.00 %6.10 °C 
00:30:007.50 °C1013.70 hPa88.00 %5.60 °C 
00:15:007.30 °C1013.60 hPa88.00 %5.40 °C 
00:00:007.10 °C1013.60 hPa88.00 %5.30 °C 

Permanenter Link zu dieser Seite: Wetter im Erzgebirge am 20.06.2015
Performance-Info: Die Erstellung der Seite / Statistik(en) / Tabelle(n) erforderte 5 Datenbankserver-Abfrage(n) und dauerte 97 Millisekunden. (Dieser Messwert ist von der Gesamt-Auslastung des Servers abhängig.)
Erzgebirge - Wetter | Erzgebirge - Wetter (Mobilgeräte) | Komplette Klimadatenbank